Time;durP1;ratioP1;P1;durP2;ratioP2;P2;SDS_P1;SDS_P2;PMS_P1;PMS_P2;Temp;Humidity;BMP_temperature;BMP_pressure;BME280_temperature;BME280_humidity;BME280_pressure;Samples;Min_cycle;Max_cycle;Signal;HPM_P1;HPM_P2
2021/11/19 00:01:15;;;;;;;30.98;19.92;;;5.40;99.90;;;;;;5040598;28;20050;-75
2021/11/19 00:03:41;;;;;;;30.75;20.23;;;5.30;99.90;;;;;;5033062;28;20572;-75
2021/11/19 00:06:07;;;;;;;29.05;20.63;;;5.40;99.90;;;;;;5037144;28;20054;-76
2021/11/19 00:08:34;;;;;;;28.52;20.08;;;5.40;99.90;;;;;;5034709;28;20098;-75
2021/11/19 00:11:02;;;;;;;33.65;21.33;;;5.40;99.90;;;;;;5036135;28;20456;-75
2021/11/19 00:13:30;;;;;;;33.35;20.55;;;5.30;99.90;;;;;;5046204;28;20065;-75
2021/11/19 00:15:58;;;;;;;29.05;20.55;;;5.30;99.90;;;;;;5030693;28;20021;-76
2021/11/19 00:18:24;;;;;;;28.33;18.55;;;5.10;99.90;;;;;;5036871;28;20458;-75
2021/11/19 00:20:50;;;;;;;28.67;19.52;;;5.30;99.90;;;;;;5038917;28;20048;-75
2021/11/19 00:23:17;;;;;;;25.65;18.65;;;5.30;99.90;;;;;;5039182;28;20056;-75
2021/11/19 00:25:43;;;;;;;27.20;18.45;;;5.30;99.90;;;;;;5037262;28;20577;-75
2021/11/19 00:28:09;;;;;;;25.75;18.52;;;5.30;99.90;;;;;;5042208;28;20025;-75
2021/11/19 00:30:37;;;;;;;25.63;18.85;;;5.30;99.90;;;;;;5032581;28;20027;-75
2021/11/19 00:33:03;;;;;;;27.83;18.65;;;5.40;99.90;;;;;;5038464;28;20108;-75
2021/11/19 00:35:29;;;;;;;29.52;19.10;;;5.30;99.90;;;;;;5039763;28;20109;-75
2021/11/19 00:37:57;;;;;;;27.20;17.95;;;5.40;99.90;;;;;;5037175;28;20021;-75
2021/11/19 00:40:36;;;;;;;24.67;18.08;;;5.40;99.90;;;;;;5037452;28;20030;-75
2021/11/19 00:43:03;;;;;;;28.35;19.10;;;5.40;99.90;;;;;;5020317;28;20428;-75
2021/11/19 00:45:29;;;;;;;30.90;19.48;;;5.30;99.90;;;;;;5037498;28;20025;-75
2021/11/19 00:47:56;;;;;;;27.58;18.13;;;5.30;99.90;;;;;;5041582;28;20094;-75
2021/11/19 00:50:28;;;;;;;29.15;19.10;;;5.30;99.90;;;;;;5034059;28;20277;-75
2021/11/19 00:52:54;;;;;;;32.78;19.55;;;5.40;99.90;;;;;;5039890;28;20024;-75
2021/11/19 00:55:20;;;;;;;28.38;19.10;;;5.40;99.90;;;;;;5032295;28;20018;-75
2021/11/19 00:57:46;;;;;;;28.30;19.45;;;5.40;99.90;;;;;;5037795;28;20037;-75
2021/11/19 01:00:16;;;;;;;28.25;18.95;;;5.50;99.90;;;;;;5043843;28;20025;-74
2021/11/19 01:02:41;;;;;;;27.48;19.75;;;5.50;99.90;;;;;;5032558;28;20511;-75
2021/11/19 01:05:07;;;;;;;30.02;20.25;;;5.50;99.90;;;;;;5040896;28;20025;-75
2021/11/19 01:07:33;;;;;;;30.60;19.60;;;5.50;99.90;;;;;;5031801;28;20093;-75
2021/11/19 01:10:06;;;;;;;32.45;19.50;;;5.40;99.90;;;;;;5036731;28;20566;-75
2021/11/19 01:12:33;;;;;;;31.00;18.80;;;5.40;99.90;;;;;;5036134;28;20053;-75
2021/11/19 01:15:10;;;;;;;28.90;18.95;;;5.40;99.90;;;;;;5039279;28;20400;-75
2021/11/19 01:17:41;;;;;;;27.90;19.70;;;5.40;99.90;;;;;;5027477;28;20024;-75
2021/11/19 01:20:16;;;;;;;29.10;19.60;;;5.30;99.90;;;;;;5037062;28;20402;-75
2021/11/19 01:22:45;;;;;;;32.80;19.20;;;5.40;99.90;;;;;;5032953;28;20021;-76
2021/11/19 01:25:13;;;;;;;31.35;20.63;;;5.40;99.90;;;;;;5034816;28;20013;-76
2021/11/19 01:27:39;;;;;;;29.95;19.95;;;5.30;99.90;;;;;;5039274;28;20029;-75
2021/11/19 01:30:08;;;;;;;29.20;19.27;;;5.30;99.90;;;;;;5032968;28;20021;-75
2021/11/19 01:32:33;;;;;;;27.98;18.92;;;5.30;99.90;;;;;;5025617;28;20021;-76
2021/11/19 01:34:59;;;;;;;32.80;19.05;;;5.30;99.90;;;;;;5038498;28;20028;-76
2021/11/19 01:37:25;;;;;;;26.05;18.88;;;5.30;99.90;;;;;;5032853;28;20046;-76
2021/11/19 01:39:50;;;;;;;31.38;20.23;;;5.30;99.90;;;;;;5040693;28;20025;-75
2021/11/19 01:42:29;;;;;;;28.83;19.80;;;5.30;99.90;;;;;;5028639;28;20458;-76
2021/11/19 01:45:01;;;;;;;33.50;20.85;;;5.30;99.90;;;;;;5021881;28;20502;-76
2021/11/19 01:47:28;;;;;;;35.70;21.75;;;5.20;99.90;;;;;;5039309;28;20111;-76
2021/11/19 01:49:54;;;;;;;36.30;21.98;;;5.30;99.90;;;;;;5030794;28;20026;-76
2021/11/19 01:52:32;;;;;;;37.35;23.45;;;5.30;99.90;;;;;;5042008;28;20040;-76
2021/11/19 01:55:03;;;;;;;36.42;24.30;;;5.20;99.90;;;;;;5027949;28;20060;-76
2021/11/19 01:57:35;;;;;;;42.75;24.70;;;5.20;99.90;;;;;;5039241;28;20121;-78
2021/11/19 02:00:03;;;;;;;37.72;23.90;;;5.10;99.90;;;;;;5027523;28;20033;-78
2021/11/19 02:02:38;;;;;;;39.67;24.90;;;5.20;99.90;;;;;;5044429;28;20022;-78
2021/11/19 02:05:07;;;;;;;37.75;24.40;;;5.20;99.90;;;;;;5042880;28;20344;-78
2021/11/19 02:07:37;;;;;;;34.75;23.92;;;5.20;99.90;;;;;;5038246;28;20484;-78
2021/11/19 02:10:14;;;;;;;42.35;25.58;;;5.20;99.90;;;;;;5040633;28;20018;-79
2021/11/19 02:12:51;;;;;;;38.28;24.75;;;5.20;99.90;;;;;;5037039;28;20016;-77
2021/11/19 02:15:23;;;;;;;36.55;25.00;;;5.20;99.90;;;;;;5042149;28;20021;-76
2021/11/19 02:17:53;;;;;;;36.30;24.35;;;5.20;99.90;;;;;;5040248;28;20059;-76
2021/11/19 02:20:28;;;;;;;41.78;25.05;;;5.20;99.90;;;;;;5036268;28;20048;-77
2021/11/19 02:23:09;;;;;;;38.22;24.15;;;5.30;99.90;;;;;;5033980;28;20053;-77
2021/11/19 02:25:40;;;;;;;37.83;24.65;;;5.30;99.90;;;;;;5034106;28;20027;-77
2021/11/19 02:28:11;;;;;;;40.42;24.20;;;5.30;99.90;;;;;;5021018;28;20118;-77
2021/11/19 02:30:51;;;;;;;42.25;24.65;;;5.30;99.90;;;;;;5013238;28;20600;-76
2021/11/19 02:33:18;;;;;;;37.42;25.30;;;5.20;99.90;;;;;;5019885;28;20264;-77
2021/11/19 02:36:06;;;;;;;39.35;24.38;;;5.20;99.90;;;;;;5032503;28;20021;-78
2021/11/19 02:38:50;;;;;;;41.90;24.33;;;5.20;99.90;;;;;;5032794;28;20095;-77
2021/11/19 02:41:19;;;;;;;38.20;24.90;;;5.30;99.90;;;;;;5033339;28;20036;-77
2021/11/19 02:43:48;;;;;;;40.35;24.33;;;5.30;99.90;;;;;;5033752;28;20233;-77
2021/11/19 02:46:18;;;;;;;42.42;25.65;;;5.30;99.90;;;;;;5033553;28;20494;-77
2021/11/19 02:48:44;;;;;;;38.20;25.60;;;5.20;99.90;;;;;;5033470;28;20033;-76
2021/11/19 02:51:11;;;;;;;41.13;25.35;;;5.30;99.90;;;;;;5033453;28;20475;-76
2021/11/19 02:53:36;;;;;;;37.65;24.55;;;5.30;99.90;;;;;;5033536;28;20108;-77
2021/11/19 02:56:02;;;;;;;40.50;25.52;;;5.20;99.90;;;;;;5033681;28;20112;-77
2021/11/19 02:58:35;;;;;;;35.42;24.55;;;5.20;99.90;;;;;;5033385;28;20068;-77
2021/11/19 03:01:18;;;;;;;37.92;24.90;;;5.20;99.90;;;;;;5033256;28;20388;-77
2021/11/19 03:03:50;;;;;;;39.92;25.08;;;5.30;99.90;;;;;;5033535;28;20095;-77
2021/11/19 03:06:16;;;;;;;38.45;23.80;;;5.30;99.90;;;;;;5032015;28;20032;-76
2021/11/19 03:08:43;;;;;;;36.85;24.25;;;5.30;99.90;;;;;;5033287;28;20029;-76
2021/11/19 03:11:12;;;;;;;38.40;24.60;;;5.30;99.90;;;;;;5026473;28;20110;-76
2021/11/19 03:13:39;;;;;;;41.42;24.67;;;5.30;99.90;;;;;;5013474;28;20030;-76
2021/11/19 03:16:06;;;;;;;36.63;24.15;;;5.30;99.90;;;;;;5013466;28;20467;-76
2021/11/19 03:18:32;;;;;;;39.40;24.05;;;5.30;99.90;;;;;;5013227;28;20083;-76
2021/11/19 03:21:01;;;;;;;37.28;23.15;;;5.30;99.90;;;;;;5012982;28;20037;-76
2021/11/19 03:23:29;;;;;;;42.00;23.00;;;5.20;99.90;;;;;;5013303;28;20088;-76
2021/11/19 03:25:55;;;;;;;46.08;23.95;;;5.30;99.90;;;;;;5013459;28;20072;-76
2021/11/19 03:28:23;;;;;;;36.63;23.60;;;5.30;99.90;;;;;;5013243;28;20065;-76
2021/11/19 03:30:52;;;;;;;43.30;24.90;;;5.30;99.90;;;;;;5031547;28;20021;-77
2021/11/19 03:33:22;;;;;;;39.53;25.08;;;5.30;99.90;;;;;;5032905;28;20085;-76
2021/11/19 03:35:51;;;;;;;38.42;24.95;;;5.40;99.90;;;;;;5032795;28;20542;-77
2021/11/19 03:38:19;;;;;;;41.83;24.95;;;5.30;99.90;;;;;;5029993;28;20040;-77
2021/11/19 03:40:47;;;;;;;41.28;24.55;;;5.30;99.90;;;;;;5011434;28;20498;-77
2021/11/19 03:43:18;;;;;;;45.42;27.13;;;5.30;99.90;;;;;;5032655;28;20172;-77
2021/11/19 03:45:51;;;;;;;50.78;25.40;;;5.30;99.90;;;;;;5031397;28;20022;-76
2021/11/19 03:48:18;;;;;;;45.17;27.05;;;5.30;99.90;;;;;;5032390;28;20057;-76
2021/11/19 03:50:50;;;;;;;48.83;27.48;;;5.30;99.90;;;;;;5032358;28;20104;-76
2021/11/19 03:53:17;;;;;;;46.95;27.85;;;5.30;99.90;;;;;;5032345;28;20026;-76
2021/11/19 03:55:46;;;;;;;48.75;27.80;;;5.30;99.90;;;;;;5031134;28;20488;-76
2021/11/19 03:58:14;;;;;;;51.47;26.90;;;5.30;99.90;;;;;;5032192;28;20033;-76
2021/11/19 04:00:43;;;;;;;50.10;28.02;;;5.30;99.90;;;;;;5032239;28;20036;-77
2021/11/19 04:03:10;;;;;;;47.92;27.92;;;5.30;99.90;;;;;;5032091;28;20483;-77
2021/11/19 04:05:37;;;;;;;42.25;25.98;;;5.30;99.90;;;;;;5030997;28;20026;-76
2021/11/19 04:08:05;;;;;;;45.60;25.20;;;5.30;99.90;;;;;;5032064;28;20036;-77
2021/11/19 04:10:32;;;;;;;41.40;25.10;;;5.50;99.90;;;;;;5031189;28;20030;-76
2021/11/19 04:12:58;;;;;;;45.55;25.35;;;5.40;99.90;;;;;;5011278;28;20025;-77
2021/11/19 04:15:29;;;;;;;41.75;24.90;;;5.30;99.90;;;;;;5012346;28;20117;-78
2021/11/19 04:17:54;;;;;;;42.75;25.10;;;5.30;99.90;;;;;;5012315;28;20038;-78
2021/11/19 04:20:23;;;;;;;44.42;25.65;;;5.30;99.90;;;;;;5013691;28;20084;-76
2021/11/19 04:22:48;;;;;;;46.35;25.55;;;5.30;99.90;;;;;;5031866;28;20029;-75
2021/11/19 04:25:17;;;;;;;44.05;25.65;;;5.30;99.90;;;;;;5030667;28;20048;-75
2021/11/19 04:27:43;;;;;;;51.35;27.60;;;5.30;99.90;;;;;;5023703;28;20023;-78
2021/11/19 04:30:14;;;;;;;44.88;25.55;;;5.30;99.90;;;;;;5012251;28;20477;-77
2021/11/19 04:32:40;;;;;;;52.28;26.85;;;5.30;99.90;;;;;;5012467;28;20112;-77
2021/11/19 04:35:07;;;;;;;46.83;25.27;;;5.40;99.90;;;;;;5028348;28;20129;-77
2021/11/19 04:37:33;;;;;;;46.17;25.65;;;5.30;99.90;;;;;;5030658;28;20048;-77
2021/11/19 04:39:58;;;;;;;45.17;25.60;;;5.40;99.90;;;;;;5031796;28;20480;-77
2021/11/19 04:42:24;;;;;;;46.08;27.48;;;5.40;99.90;;;;;;5031747;28;20025;-79
2021/11/19 04:44:51;;;;;;;59.38;31.48;;;5.40;99.90;;;;;;5031625;28;20479;-76
2021/11/19 04:47:16;;;;;;;65.38;32.17;;;5.50;99.90;;;;;;5031625;28;20056;-77
2021/11/19 04:49:42;;;;;;;54.03;28.00;;;5.50;99.90;;;;;;5031415;28;20052;-76
2021/11/19 04:52:11;;;;;;;51.20;28.05;;;5.40;99.90;;;;;;5031348;28;20119;-76
2021/11/19 04:54:37;;;;;;;59.38;29.17;;;5.40;99.90;;;;;;5031572;28;20030;-76
2021/11/19 04:57:03;;;;;;;59.65;28.45;;;5.50;99.90;;;;;;5031386;28;20088;-75
2021/11/19 04:59:29;;;;;;;51.38;29.63;;;5.40;99.90;;;;;;5032214;28;20028;-75
2021/11/19 05:02:01;;;;;;;63.75;31.33;;;5.40;99.90;;;;;;5032186;28;20112;-75
2021/11/19 05:04:27;;;;;;;53.30;28.58;;;5.40;99.90;;;;;;5014630;28;20034;-75
2021/11/19 05:06:53;;;;;;;70.28;32.90;;;5.40;99.90;;;;;;5011804;28;20014;-75
2021/11/19 05:09:19;;;;;;;57.72;29.98;;;5.40;99.90;;;;;;5011844;28;20023;-77
2021/11/19 05:11:51;;;;;;;55.17;29.20;;;5.40;99.90;;;;;;5010662;28;20026;-77
2021/11/19 05:14:18;;;;;;;52.60;29.40;;;5.40;99.90;;;;;;5011918;28;20034;-78
2021/11/19 05:16:44;;;;;;;58.22;30.55;;;5.50;99.90;;;;;;5011573;28;20076;-77
2021/11/19 05:19:10;;;;;;;64.90;32.75;;;5.50;99.90;;;;;;5028065;28;20025;-77
2021/11/19 05:21:36;;;;;;;59.60;30.48;;;5.50;99.90;;;;;;5019774;28;20018;-76
2021/11/19 05:24:03;;;;;;;56.00;31.23;;;5.50;99.90;;;;;;5010431;28;20430;-76
2021/11/19 05:26:30;;;;;;;77.20;35.45;;;5.50;99.90;;;;;;5011608;28;20026;-75
2021/11/19 05:28:57;;;;;;;66.53;32.63;;;5.50;99.90;;;;;;5011524;28;20026;-76
2021/11/19 05:31:23;;;;;;;65.38;32.33;;;5.50;99.90;;;;;;5011361;28;20552;-75
2021/11/19 05:33:49;;;;;;;66.78;33.40;;;5.50;99.90;;;;;;5017240;28;20105;-75
2021/11/19 05:36:16;;;;;;;63.97;31.65;;;5.40;99.90;;;;;;5033603;28;20036;-75
2021/11/19 05:38:42;;;;;;;52.05;30.65;;;5.50;99.90;;;;;;5035365;28;20025;-77
2021/11/19 05:41:10;;;;;;;66.57;37.30;;;5.40;99.90;;;;;;5035052;28;20036;-77
2021/11/19 05:43:38;;;;;;;68.10;38.13;;;5.40;99.90;;;;;;5033524;28;20025;-76
2021/11/19 05:46:04;;;;;;;71.40;43.40;;;5.40;99.90;;;;;;5033487;28;20026;-77
2021/11/19 05:48:30;;;;;;;81.53;40.60;;;5.40;99.90;;;;;;5034930;28;20036;-76
2021/11/19 05:50:56;;;;;;;71.05;38.38;;;5.40;99.90;;;;;;5034698;28;20030;-76
2021/11/19 05:53:21;;;;;;;89.18;45.30;;;5.40;99.90;;;;;;5034854;28;20638;-76
2021/11/19 05:55:48;;;;;;;97.95;45.17;;;5.40;99.90;;;;;;5035097;28;20044;-76
2021/11/19 05:58:15;;;;;;;66.43;36.78;;;5.40;99.90;;;;;;5033107;28;20039;-76
2021/11/19 06:01:03;;;;;;;71.60;38.72;;;5.40;99.90;;;;;;5034260;28;20037;-75
2021/11/19 06:03:29;;;;;;;78.28;38.45;;;5.40;99.90;;;;;;5023559;28;20038;-75
2021/11/19 06:05:55;;;;;;;70.57;38.40;;;5.50;99.90;;;;;;5022551;28;20021;-75
2021/11/19 06:08:20;;;;;;;69.57;36.72;;;5.50;99.90;;;;;;5016951;28;20438;-75
2021/11/19 06:11:09;;;;;;;93.05;44.08;;;5.50;99.90;;;;;;5027874;28;20029;-75
2021/11/19 06:13:40;;;;;;;63.55;36.70;;;5.40;99.90;;;;;;5027432;28;20026;-75
2021/11/19 06:16:10;;;;;;;73.32;38.28;;;5.40;99.90;;;;;;5034350;28;20030;-75
2021/11/19 06:18:40;;;;;;;78.68;43.50;;;5.50;99.90;;;;;;5034482;28;20460;-76
2021/11/19 06:21:11;;;;;;;89.82;45.97;;;5.50;99.90;;;;;;5034313;28;20036;-76
2021/11/19 06:23:43;;;;;;;87.20;52.28;;;5.50;99.90;;;;;;5032678;28;20491;-76
2021/11/19 06:26:12;;;;;;;70.63;39.55;;;5.50;99.90;;;;;;5014535;28;20025;-76
2021/11/19 06:28:41;;;;;;;108.32;47.95;;;5.50;99.90;;;;;;5014394;28;20056;-77
2021/11/19 06:31:09;;;;;;;83.43;43.33;;;5.50;99.90;;;;;;5014148;28;20025;-77
2021/11/19 06:33:34;;;;;;;77.07;43.42;;;5.50;99.90;;;;;;5017841;28;20434;-77
2021/11/19 06:36:00;;;;;;;99.60;48.40;;;5.50;99.90;;;;;;5034011;28;20033;-77
2021/11/19 06:38:25;;;;;;;76.85;42.70;;;5.50;99.90;;;;;;5033915;28;20030;-77
2021/11/19 06:40:51;;;;;;;75.28;40.90;;;5.50;99.90;;;;;;5032307;28;20084;-76
2021/11/19 06:43:17;;;;;;;86.55;42.50;;;5.40;99.90;;;;;;5033708;28;20052;-76
2021/11/19 06:45:42;;;;;;;73.90;40.45;;;5.40;99.90;;;;;;5032414;28;20079;-77
2021/11/19 06:48:08;;;;;;;85.03;42.28;;;5.50;99.90;;;;;;5032437;28;20033;-76
2021/11/19 06:50:40;;;;;;;89.70;42.47;;;5.50;99.90;;;;;;5033427;28;20039;-76
2021/11/19 06:53:06;;;;;;;74.97;40.85;;;5.40;99.90;;;;;;5033761;28;20029;-76
2021/11/19 06:55:33;;;;;;;80.97;38.78;;;5.40;99.90;;;;;;5032385;28;20409;-76
2021/11/19 06:57:58;;;;;;;71.30;39.30;;;5.50;99.90;;;;;;5033388;28;20127;-77
2021/11/19 07:00:28;;;;;;;74.10;38.15;;;5.40;99.90;;;;;;5033597;28;20105;-76
2021/11/19 07:02:55;;;;;;;83.10;43.00;;;5.40;99.90;;;;;;5033578;28;20032;-76
2021/11/19 07:05:20;;;;;;;74.65;38.47;;;5.40;99.90;;;;;;5033479;28;20032;-76
2021/11/19 07:07:46;;;;;;;75.50;40.35;;;5.40;99.90;;;;;;5032072;28;20021;-76
2021/11/19 07:10:14;;;;;;;81.75;43.30;;;5.50;99.90;;;;;;5033472;28;20107;-76
2021/11/19 07:12:40;;;;;;;76.25;40.15;;;5.30;99.90;;;;;;5015537;28;20030;-76
2021/11/19 07:15:09;;;;;;;82.18;40.47;;;5.40;99.90;;;;;;5024774;28;20113;-77
2021/11/19 07:17:35;;;;;;;74.75;38.33;;;5.40;99.90;;;;;;5013643;28;20399;-76
2021/11/19 07:20:01;;;;;;;75.30;37.50;;;5.40;99.90;;;;;;5012197;28;20026;-76
2021/11/19 07:22:27;;;;;;;69.75;35.00;;;5.40;99.90;;;;;;5025836;28;20026;-77
2021/11/19 07:24:52;;;;;;;76.55;37.38;;;5.50;99.90;;;;;;5023421;28;20029;-76
2021/11/19 07:27:21;;;;;;;76.90;39.47;;;5.40;99.90;;;;;;5013167;28;20080;-76
2021/11/19 07:29:46;;;;;;;76.82;39.90;;;5.50;99.90;;;;;;5012534;28;20029;-77
2021/11/19 07:32:12;;;;;;;66.45;37.00;;;5.50;99.90;;;;;;5013314;28;20101;-77
2021/11/19 07:34:38;;;;;;;68.85;38.13;;;5.50;99.90;;;;;;5024343;28;20236;-77
2021/11/19 07:37:04;;;;;;;71.78;36.90;;;5.60;99.90;;;;;;5027548;28;20399;-77
2021/11/19 07:39:30;;;;;;;62.83;35.15;;;5.50;99.90;;;;;;5013499;28;20029;-76
2021/11/19 07:41:55;;;;;;;61.90;35.78;;;5.50;99.90;;;;;;5031640;28;20495;-77
2021/11/19 07:44:21;;;;;;;61.22;33.95;;;5.60;99.90;;;;;;5012361;28;20022;-76
2021/11/19 07:46:48;;;;;;;59.45;33.25;;;5.60;99.90;;;;;;5026232;28;20028;-75
2021/11/19 07:49:14;;;;;;;60.38;34.08;;;5.60;99.90;;;;;;5031374;28;20491;-76
2021/11/19 07:51:43;;;;;;;60.38;33.80;;;5.60;99.90;;;;;;5027429;28;20025;-75
2021/11/19 07:54:09;;;;;;;60.35;36.22;;;5.60;99.90;;;;;;5032548;28;20021;-75
2021/11/19 07:56:36;;;;;;;76.38;42.80;;;5.60;99.90;;;;;;5032341;28;20034;-75
2021/11/19 07:59:23;;;;;;;60.45;37.10;;;5.60;99.90;;;;;;5030751;28;20017;-75
2021/11/19 08:01:49;;;;;;;102.50;59.97;;;5.70;99.90;;;;;;5011320;28;20049;-75
2021/11/19 08:04:16;;;;;;;111.57;64.63;;;5.70;99.90;;;;;;5026930;28;20064;-76
2021/11/19 08:06:43;;;;;;;138.10;80.13;;;5.70;99.90;;;;;;5032591;28;20030;-76
2021/11/19 08:09:09;;;;;;;152.32;84.85;;;5.70;99.90;;;;;;5028735;28;20051;-76
2021/11/19 08:11:36;;;;;;;161.18;90.50;;;5.90;99.90;;;;;;5032113;28;20022;-76
2021/11/19 08:14:02;;;;;;;224.57;131.95;;;5.70;99.90;;;;;;5028730;28;20048;-76
2021/11/19 08:16:35;;;;;;;131.98;79.97;;;5.80;99.90;;;;;;5021703;28;20522;-76
2021/11/19 08:19:03;;;;;;;119.90;73.03;;;5.80;99.90;;;;;;5018004;28;20384;-76
2021/11/19 08:21:29;;;;;;;60.30;37.25;;;5.80;99.90;;;;;;5021857;28;20026;-75
2021/11/19 08:24:00;;;;;;;55.70;33.17;;;5.80;99.90;;;;;;5024752;28;20134;-76
2021/11/19 08:26:42;;;;;;;50.08;31.05;;;5.80;99.90;;;;;;5022536;28;20032;-76
2021/11/19 08:29:12;;;;;;;47.67;30.35;;;5.80;99.90;;;;;;5018244;28;20017;-76
2021/11/19 08:31:38;;;;;;;49.15;29.90;;;5.80;99.90;;;;;;5017767;28;20480;-76
2021/11/19 08:34:04;;;;;;;44.70;28.02;;;5.80;99.90;;;;;;5031038;28;20037;-76
2021/11/19 08:36:31;;;;;;;47.58;29.50;;;5.80;99.90;;;;;;5030842;28;20022;-76
2021/11/19 08:38:57;;;;;;;42.47;27.10;;;5.80;99.90;;;;;;5023050;28;20461;-76
2021/11/19 08:41:23;;;;;;;44.28;27.15;;;5.80;99.90;;;;;;5024194;28;20049;-75
2021/11/19 08:43:51;;;;;;;44.75;28.30;;;5.80;99.90;;;;;;5019203;28;20033;-75
2021/11/19 08:46:23;;;;;;;42.53;26.45;;;5.80;99.90;;;;;;5017591;28;20022;-76
2021/11/19 08:48:49;;;;;;;37.92;25.52;;;5.90;99.90;;;;;;5037641;28;20025;-76
2021/11/19 08:51:19;;;;;;;43.95;25.63;;;5.90;99.90;;;;;;5028348;28;20030;-76
2021/11/19 08:53:50;;;;;;;40.70;26.75;;;5.90;99.90;;;;;;5021841;28;20037;-76
2021/11/19 08:56:16;;;;;;;38.20;24.65;;;5.90;99.90;;;;;;5027992;28;20109;-76
2021/11/19 08:58:44;;;;;;;42.70;26.00;;;5.90;99.90;;;;;;5021338;28;20091;-76
2021/11/19 09:01:11;;;;;;;40.25;25.00;;;6.00;99.90;;;;;;5022163;28;20381;-76
2021/11/19 09:03:37;;;;;;;39.50;25.33;;;5.90;99.90;;;;;;5021484;28;20352;-76
2021/11/19 09:06:08;;;;;;;42.58;26.55;;;5.90;99.90;;;;;;5027903;28;20035;-76
2021/11/19 09:08:35;;;;;;;43.33;27.40;;;6.00;99.90;;;;;;5023406;28;20089;-75
2021/11/19 09:11:01;;;;;;;39.08;25.02;;;6.00;99.90;;;;;;5022147;28;20013;-76
2021/11/19 09:13:29;;;;;;;40.25;25.98;;;6.10;99.90;;;;;;5024916;28;20495;-76
2021/11/19 09:15:57;;;;;;;38.00;25.38;;;6.10;99.90;;;;;;5029476;28;20038;-76
2021/11/19 09:18:50;;;;;;;38.47;25.10;;;6.10;99.90;;;;;;5026135;28;20032;-76
2021/11/19 09:21:16;;;;;;;38.55;25.60;;;6.10;99.90;;;;;;5024486;28;20030;-76
2021/11/19 09:23:49;;;;;;;36.58;24.40;;;6.10;99.90;;;;;;5032667;28;20480;-76
2021/11/19 09:26:22;;;;;;;38.50;24.77;;;6.20;99.90;;;;;;5024267;28;20029;-76
2021/11/19 09:28:50;;;;;;;35.13;24.17;;;6.20;99.90;;;;;;5022258;28;20025;-76
2021/11/19 09:31:19;;;;;;;35.17;23.48;;;6.20;99.90;;;;;;5024303;28;20026;-75
2021/11/19 09:33:46;;;;;;;38.10;23.83;;;6.20;99.90;;;;;;5033530;28;20369;-76
2021/11/19 09:36:12;;;;;;;33.25;22.10;;;6.40;99.90;;;;;;5036748;28;20037;-74
2021/11/19 09:38:37;;;;;;;32.33;21.27;;;6.40;99.90;;;;;;5029841;28;20100;-77
2021/11/19 09:41:26;;;;;;;33.47;21.38;;;6.40;99.90;;;;;;5027158;28;20061;-75
2021/11/19 09:44:28;;;;;;;33.28;22.58;;;6.40;99.90;;;;;;5023815;28;20025;-75
2021/11/19 09:47:34;;;;;;;32.15;22.20;;;6.60;99.90;;;;;;5022183;28;20041;-75
2021/11/19 09:50:43;;;;;;;34.95;22.13;;;6.60;99.90;;;;;;5027999;28;20468;-75
2021/11/19 09:53:34;;;;;;;34.50;22.02;;;6.60;99.90;;;;;;5027068;28;20038;-74
2021/11/19 09:56:30;;;;;;;32.60;22.02;;;6.60;99.90;;;;;;5028730;28;20376;-75
2021/11/19 09:59:07;;;;;;;34.90;22.98;;;6.50;99.90;;;;;;5021198;28;20050;-75
2021/11/19 10:01:51;;;;;;;34.35;22.85;;;6.60;99.90;;;;;;5038233;28;20029;-75
2021/11/19 10:04:35;;;;;;;31.70;21.65;;;6.60;99.90;;;;;;5037919;28;20030;-74
2021/11/19 10:07:23;;;;;;;32.75;22.58;;;6.50;99.90;;;;;;5026781;28;20022;-75
2021/11/19 10:10:24;;;;;;;33.25;21.70;;;6.50;99.90;;;;;;5023202;28;20032;-75
2021/11/19 10:13:10;;;;;;;30.58;20.95;;;6.50;99.90;;;;;;5019728;28;20025;-74
2021/11/19 10:15:53;;;;;;;31.45;20.75;;;6.60;99.90;;;;;;5021194;28;20093;-75
2021/11/19 10:18:46;;;;;;;33.00;21.75;;;6.60;99.90;;;;;;5033217;28;20025;-74
2021/11/19 10:21:19;;;;;;;35.03;22.27;;;6.60;99.90;;;;;;5022372;28;20052;-74
2021/11/19 10:23:51;;;;;;;36.50;22.30;;;6.70;99.90;;;;;;5018373;28;20022;-72
2021/11/19 10:26:20;;;;;;;34.97;23.52;;;6.70;99.90;;;;;;5024655;28;20034;-74
2021/11/19 10:28:53;;;;;;;47.10;31.60;;;6.70;99.90;;;;;;5032785;28;20025;-74
2021/11/19 10:31:23;;;;;;;44.38;29.77;;;6.70;99.90;;;;;;5022377;28;20084;-73
2021/11/19 10:34:16;;;;;;;38.10;23.88;;;6.60;99.90;;;;;;5033082;28;20021;-75
2021/11/19 10:37:09;;;;;;;38.03;23.83;;;6.50;99.90;;;;;;5033961;28;20064;-75
2021/11/19 10:39:59;;;;;;;43.45;24.48;;;6.50;99.90;;;;;;5021002;28;20029;-75
2021/11/19 10:42:48;;;;;;;42.13;25.25;;;6.50;99.90;;;;;;5049336;28;20116;-74
2021/11/19 10:45:33;;;;;;;41.55;25.48;;;6.50;99.90;;;;;;5020655;28;20021;-74
2021/11/19 10:48:09;;;;;;;45.33;25.90;;;6.50;99.90;;;;;;5031342;28;20491;-74
2021/11/19 10:51:04;;;;;;;45.97;26.63;;;6.50;99.90;;;;;;5013899;28;20022;-74
2021/11/19 10:54:03;;;;;;;43.95;27.02;;;6.50;99.90;;;;;;5021702;28;20069;-74
2021/11/19 10:56:34;;;;;;;39.97;25.40;;;6.40;99.90;;;;;;5027063;28;20495;-74
2021/11/19 10:59:20;;;;;;;43.42;27.17;;;6.40;99.90;;;;;;5026721;28;20039;-75
2021/11/19 11:02:18;;;;;;;42.40;27.38;;;6.50;99.90;;;;;;5037209;28;20021;-74
2021/11/19 11:04:53;;;;;;;43.03;26.83;;;6.60;99.90;;;;;;5044463;28;20102;-75
2021/11/19 11:07:25;;;;;;;42.42;26.27;;;6.60;99.90;;;;;;5044122;28;20094;-72
2021/11/19 11:10:16;;;;;;;41.08;25.98;;;6.60;99.90;;;;;;5044863;28;20021;-74
2021/11/19 11:12:44;;;;;;;38.92;25.27;;;6.50;99.90;;;;;;5044330;28;20021;-74
2021/11/19 11:15:33;;;;;;;41.17;24.20;;;6.50;99.90;;;;;;5044990;28;20422;-73
2021/11/19 11:18:22;;;;;;;37.88;23.75;;;6.50;99.90;;;;;;5042368;28;20036;-74
2021/11/19 11:20:55;;;;;;;38.80;24.42;;;6.70;99.90;;;;;;5031925;28;20487;-74
2021/11/19 11:23:44;;;;;;;41.00;25.25;;;6.70;99.90;;;;;;5056678;28;20049;-74
2021/11/19 11:26:13;;;;;;;40.80;25.25;;;6.80;99.90;;;;;;5046070;28;20021;-74
2021/11/19 11:28:53;;;;;;;38.70;23.92;;;6.90;99.90;;;;;;5041106;28;20022;-74
2021/11/19 11:31:36;;;;;;;40.10;23.80;;;6.80;99.90;;;;;;5047184;28;20417;-74
2021/11/19 11:34:33;;;;;;;36.10;23.30;;;6.80;99.90;;;;;;5035159;28;20029;-74
2021/11/19 11:37:17;;;;;;;36.08;23.67;;;6.90;99.90;;;;;;5034499;28;20025;-75
2021/11/19 11:40:10;;;;;;;38.70;23.73;;;6.90;99.90;;;;;;5032968;28;20022;-75
2021/11/19 11:42:46;;;;;;;34.75;23.17;;;6.90;99.90;;;;;;5029252;28;20028;-74
2021/11/19 11:45:40;;;;;;;37.10;23.02;;;6.80;99.90;;;;;;5040228;28;20057;-74
2021/11/19 11:48:31;;;;;;;33.40;20.77;;;6.80;99.90;;;;;;5038459;28;20025;-74
2021/11/19 11:50:57;;;;;;;32.40;21.17;;;6.90;99.90;;;;;;5057892;28;20033;-74
2021/11/19 11:53:27;;;;;;;32.55;21.13;;;6.80;99.90;;;;;;5041506;28;20022;-75
2021/11/19 11:56:28;;;;;;;33.88;20.77;;;6.90;99.90;;;;;;5043553;28;20029;-74
2021/11/19 11:59:31;;;;;;;32.13;19.45;;;6.90;99.90;;;;;;5035737;28;20049;-74
2021/11/19 12:02:18;;;;;;;31.42;20.42;;;7.00;99.90;;;;;;5043840;28;20021;-75
2021/11/19 12:05:21;;;;;;;32.85;20.65;;;7.00;99.90;;;;;;5024780;28;20016;-75
2021/11/19 12:07:56;;;;;;;30.35;20.58;;;7.10;99.90;;;;;;5043496;28;20116;-75
2021/11/19 12:10:44;;;;;;;28.50;18.38;;;7.00;99.90;;;;;;5042063;28;20021;-74
2021/11/19 12:13:34;;;;;;;29.27;18.70;;;7.10;99.90;;;;;;5047589;28;20082;-74
2021/11/19 12:16:11;;;;;;;26.00;17.38;;;7.10;99.90;;;;;;5040341;28;20045;-74
2021/11/19 12:19:02;;;;;;;27.05;17.42;;;7.10;99.90;;;;;;5035156;28;20479;-75
2021/11/19 12:21:32;;;;;;;25.98;16.90;;;7.10;99.90;;;;;;5048549;28;20038;-74
2021/11/19 12:24:12;;;;;;;26.25;17.92;;;7.20;99.90;;;;;;5035597;28;20036;-74
2021/11/19 12:27:00;;;;;;;31.48;20.83;;;7.20;99.90;;;;;;5036674;28;20074;-74
2021/11/19 12:29:37;;;;;;;29.52;18.23;;;7.30;99.90;;;;;;5042940;28;20499;-74
2021/11/19 12:32:12;;;;;;;15.45;11.23;;;7.40;99.90;;;;;;5040479;28;20025;-74
2021/11/19 12:34:44;;;;;;;17.77;12.20;;;7.30;99.90;;;;;;5033115;28;20025;-74
2021/11/19 12:37:20;;;;;;;16.92;11.85;;;7.30;99.90;;;;;;5037260;28;20033;-74
2021/11/19 12:39:47;;;;;;;16.63;11.48;;;7.30;99.90;;;;;;5046500;28;20495;-74
2021/11/19 12:42:25;;;;;;;17.52;13.07;;;7.30;99.90;;;;;;5042393;28;20506;-74
2021/11/19 12:45:00;;;;;;;18.75;13.85;;;7.30;99.90;;;;;;5041912;28;20497;-74
2021/11/19 12:47:31;;;;;;;23.83;15.48;;;7.30;99.90;;;;;;5047864;28;20364;-74
2021/11/19 12:50:25;;;;;;;28.42;16.67;;;7.30;99.90;;;;;;5035375;28;20018;-74
2021/11/19 12:53:19;;;;;;;26.50;18.23;;;7.20;99.90;;;;;;5033491;28;20095;-73
2021/11/19 12:56:23;;;;;;;29.52;18.80;;;7.30;99.90;;;;;;5030627;28;20017;-74
2021/11/19 12:58:58;;;;;;;31.25;21.42;;;7.30;99.90;;;;;;5032475;28;20091;-74
2021/11/19 13:01:50;;;;;;;28.85;18.77;;;7.20;99.90;;;;;;5042278;28;20033;-74